createdAt,value
2023-04-16T00:01:36.013Z,66.40
2023-04-16T00:04:02.765Z,58.17
2023-04-16T00:06:29.590Z,62.67
2023-04-16T00:08:56.413Z,62.63
2023-04-16T00:11:22.836Z,64.20
2023-04-16T00:13:49.374Z,66.18
2023-04-16T00:16:16.145Z,66.68
2023-04-16T00:18:42.618Z,66.75
2023-04-16T00:21:09.074Z,68.28
2023-04-16T00:23:35.725Z,69.22
2023-04-16T00:26:02.187Z,71.20
2023-04-16T00:28:29.016Z,65.97
2023-04-16T00:30:55.753Z,66.63
2023-04-16T00:33:22.691Z,67.57
2023-04-16T00:35:49.371Z,63.67
2023-04-16T00:38:16.125Z,64.43
2023-04-16T00:40:42.735Z,64.97
2023-04-16T00:43:09.230Z,65.13
2023-04-16T00:45:36.521Z,68.80
2023-04-16T00:48:03.304Z,70.40
2023-04-16T00:50:30.000Z,67.57
2023-04-16T00:52:57.086Z,66.05
2023-04-16T00:55:23.743Z,70.88
2023-04-16T00:57:50.513Z,66.82
2023-04-16T01:00:17.214Z,68.88
2023-04-16T01:02:43.834Z,67.63
2023-04-16T01:08:57.609Z,67.57
2023-04-16T01:11:24.102Z,65.75
2023-04-16T01:13:50.982Z,70.50
2023-04-16T01:16:17.547Z,68.68
2023-04-16T01:18:44.026Z,62.35
2023-04-16T01:21:10.552Z,69.35
2023-04-16T01:23:36.992Z,67.35
2023-04-16T01:26:03.556Z,73.90
2023-04-16T01:28:30.056Z,66.72
2023-04-16T01:30:56.556Z,64.20
2023-04-16T01:33:23.080Z,64.38
2023-04-16T01:35:49.628Z,63.58
2023-04-16T01:38:16.488Z,65.00
2023-04-16T01:40:42.952Z,63.30
2023-04-16T01:43:09.511Z,66.25
2023-04-16T01:45:36.011Z,65.78
2023-04-16T01:48:03.766Z,56.35
2023-04-16T01:50:30.837Z,60.63
2023-04-16T01:52:57.356Z,65.45
2023-04-16T01:55:23.843Z,59.30
2023-04-16T01:57:50.832Z,58.65
2023-04-16T02:00:17.286Z,64.70
2023-04-16T02:02:43.861Z,62.15
2023-04-16T02:05:10.402Z,60.70
2023-04-16T02:07:36.805Z,73.70
2023-04-16T02:10:04.700Z,73.43
2023-04-16T02:12:31.090Z,65.53
2023-04-16T02:14:57.517Z,62.47
2023-04-16T02:17:24.025Z,58.15
2023-04-16T02:19:50.651Z,60.30
2023-04-16T02:22:17.156Z,60.25
2023-04-16T02:24:43.675Z,60.05
2023-04-16T02:27:10.126Z,57.90
2023-04-16T02:29:36.552Z,59.20
2023-04-16T02:32:03.122Z,54.58
2023-04-16T02:34:29.703Z,56.45
2023-04-16T02:36:58.336Z,52.22
2023-04-16T02:39:24.816Z,62.17
2023-04-16T02:41:51.424Z,59.00
2023-04-16T02:44:17.930Z,55.53
2023-04-16T02:46:44.358Z,63.58
2023-04-16T02:49:11.010Z,64.55
2023-04-16T02:51:37.482Z,64.28
2023-04-16T02:54:03.895Z,65.30
2023-04-16T02:56:30.446Z,61.67
2023-04-16T02:58:56.863Z,64.88
2023-04-16T03:01:23.482Z,59.42
2023-04-16T03:03:49.983Z,59.67
2023-04-16T03:06:16.780Z,69.28
2023-04-16T03:08:43.343Z,64.72
2023-04-16T03:11:09.747Z,65.90
2023-04-16T03:13:36.279Z,68.25
2023-04-16T03:16:03.025Z,67.93
2023-04-16T03:18:29.672Z,76.35
2023-04-16T03:20:56.164Z,76.47
2023-04-16T03:23:22.601Z,78.20
2023-04-16T03:25:49.066Z,80.63
2023-04-16T03:28:15.687Z,78.88
2023-04-16T03:30:42.134Z,72.95
2023-04-16T03:33:08.565Z,76.50
2023-04-16T03:35:35.350Z,69.47
2023-04-16T03:38:01.780Z,75.25
2023-04-16T03:40:28.245Z,77.18
2023-04-16T03:42:54.740Z,83.93
2023-04-16T03:45:21.160Z,77.93
2023-04-16T03:47:52.410Z,74.25
2023-04-16T03:50:19.558Z,71.07
2023-04-16T03:52:46.932Z,72.22
2023-04-16T03:55:13.906Z,73.82
2023-04-16T03:57:40.692Z,78.38
2023-04-16T04:00:07.865Z,66.80
2023-04-16T04:02:34.516Z,75.45
2023-04-16T04:05:01.108Z,79.22
2023-04-16T04:07:27.597Z,67.63
2023-04-16T04:09:54.252Z,67.88
2023-04-16T04:12:20.706Z,68.43
2023-04-16T04:14:47.101Z,67.30
2023-04-16T04:17:13.590Z,70.05
2023-04-16T04:19:47.125Z,65.47
2023-04-16T04:22:21.022Z,57.75
2023-04-16T04:24:47.507Z,60.28
2023-04-16T04:27:13.994Z,61.63
2023-04-16T04:29:40.551Z,64.55
2023-04-16T04:32:07.111Z,67.93
2023-04-16T04:34:33.582Z,61.78
2023-04-16T04:37:00.165Z,59.28
2023-04-16T04:39:27.159Z,72.18
2023-04-16T04:41:53.658Z,59.60
2023-04-16T04:44:20.165Z,75.40
2023-04-16T04:46:46.612Z,73.32
2023-04-16T04:49:13.106Z,67.95
2023-04-16T04:51:39.601Z,71.85
2023-04-16T04:54:06.157Z,73.97
2023-04-16T04:56:32.565Z,88.00
2023-04-16T04:58:59.029Z,80.35
2023-04-16T05:01:25.599Z,76.88
2023-04-16T05:03:52.116Z,80.43
2023-04-16T05:06:18.652Z,73.07
2023-04-16T05:08:45.069Z,72.32
2023-04-16T05:11:11.537Z,85.60
2023-04-16T05:13:38.062Z,91.07
2023-04-16T05:16:04.798Z,74.53
2023-04-16T05:18:32.615Z,78.32
2023-04-16T05:20:59.092Z,79.35
2023-04-16T05:23:25.561Z,81.55
2023-04-16T05:25:52.009Z,77.72
2023-04-16T05:28:18.483Z,78.30
2023-04-16T05:30:44.901Z,73.13
2023-04-16T05:33:11.411Z,75.78
2023-04-16T05:35:37.858Z,74.35
2023-04-16T05:38:04.514Z,70.43
2023-04-16T05:40:32.349Z,70.68
2023-04-16T05:42:58.787Z,73.65
2023-04-16T05:45:26.729Z,79.70
2023-04-16T05:47:54.540Z,69.75
2023-04-16T05:50:20.984Z,63.17
2023-04-16T05:52:47.682Z,60.58
2023-04-16T05:55:14.162Z,62.03
2023-04-16T05:57:40.707Z,65.85
2023-04-16T06:00:08.048Z,65.85
2023-04-16T06:02:34.729Z,61.92
2023-04-16T06:05:01.367Z,58.55
2023-04-16T06:07:27.804Z,64.97
2023-04-16T06:09:54.345Z,62.50
2023-04-16T06:12:20.810Z,62.53
2023-04-16T06:14:48.404Z,58.90
2023-04-16T06:17:14.902Z,59.38
2023-04-16T06:19:41.339Z,55.97
2023-04-16T06:22:07.868Z,57.92
2023-04-16T06:24:34.352Z,55.03
2023-04-16T06:27:00.877Z,55.05
2023-04-16T06:29:36.817Z,58.22
2023-04-16T06:32:07.903Z,53.42
2023-04-16T06:34:34.538Z,53.90
2023-04-16T06:37:01.271Z,54.08
2023-04-16T06:39:27.992Z,53.70
2023-04-16T06:41:54.574Z,54.03
2023-04-16T06:44:21.314Z,57.70
2023-04-16T06:46:47.869Z,57.60
2023-04-16T06:49:14.367Z,51.85
2023-04-16T06:51:41.953Z,57.33
2023-04-16T06:54:08.560Z,55.15
2023-04-16T06:56:37.295Z,49.70
2023-04-16T06:59:04.241Z,59.70
2023-04-16T07:01:33.527Z,58.88
2023-04-16T07:04:00.306Z,54.30
2023-04-16T07:06:27.157Z,51.10
2023-04-16T07:08:53.644Z,51.22
2023-04-16T07:11:20.907Z,53.80
2023-04-16T07:13:47.397Z,58.10
2023-04-16T07:16:13.975Z,56.00
2023-04-16T07:18:40.425Z,57.33
2023-04-16T07:21:06.861Z,55.33
2023-04-16T07:23:33.374Z,52.42
2023-04-16T07:25:59.833Z,51.25
2023-04-16T07:28:26.330Z,54.90
2023-04-16T07:30:52.837Z,53.15
2023-04-16T07:33:19.293Z,51.25
2023-04-16T07:35:45.779Z,58.22
2023-04-16T07:38:12.298Z,56.42
2023-04-16T07:40:38.827Z,53.13
2023-04-16T07:43:05.374Z,55.25
2023-04-16T07:45:31.854Z,47.85
2023-04-16T07:47:58.553Z,53.95
2023-04-16T07:50:25.414Z,53.88
2023-04-16T07:52:51.928Z,52.83
2023-04-16T07:55:18.414Z,55.40
2023-04-16T07:57:44.893Z,51.75
2023-04-16T08:00:11.913Z,59.97
2023-04-16T08:02:38.656Z,52.72
2023-04-16T08:05:05.605Z,50.60
2023-04-16T08:07:34.044Z,48.63
2023-04-16T08:10:01.316Z,52.33
2023-04-16T08:12:27.814Z,48.85
2023-04-16T08:14:54.360Z,52.53
2023-04-16T08:17:20.889Z,51.95
2023-04-16T08:19:47.476Z,51.17
2023-04-16T08:22:14.092Z,53.58
2023-04-16T08:24:40.777Z,51.55
2023-04-16T08:27:17.947Z,50.38
2023-04-16T08:29:46.272Z,46.75
2023-04-16T08:32:12.890Z,43.85
2023-04-16T08:34:39.494Z,44.70
2023-04-16T08:37:06.031Z,47.90
2023-04-16T08:39:32.649Z,42.38
2023-04-16T08:42:00.609Z,47.25
2023-04-16T08:44:32.644Z,45.40
2023-04-16T08:47:00.340Z,45.58
2023-04-16T08:49:27.600Z,42.25
2023-04-16T08:51:55.626Z,43.97
2023-04-16T08:54:56.722Z,41.00
2023-04-16T08:57:26.833Z,43.75
2023-04-16T08:59:55.184Z,39.78
2023-04-16T09:02:22.288Z,45.03
2023-04-16T09:04:50.695Z,40.10
2023-04-16T09:07:19.506Z,36.17
2023-04-16T09:09:48.463Z,41.03
2023-04-16T09:12:15.359Z,43.22
2023-04-16T09:14:43.034Z,36.65
2023-04-16T09:17:10.354Z,37.35
2023-04-16T09:19:37.055Z,37.20
2023-04-16T09:22:03.474Z,40.30
2023-04-16T09:24:30.023Z,42.13
2023-04-16T09:26:57.436Z,38.50
2023-04-16T09:29:49.899Z,36.22
2023-04-16T09:32:16.473Z,41.17
2023-04-16T09:35:00.152Z,38.70
2023-04-16T09:37:29.864Z,40.25
2023-04-16T09:40:01.330Z,32.45
2023-04-16T09:42:30.015Z,31.75
2023-04-16T09:44:59.428Z,35.65
2023-04-16T09:47:39.833Z,31.27
2023-04-16T09:50:07.554Z,28.65
2023-04-16T09:52:36.999Z,30.95
2023-04-16T09:55:03.533Z,30.73
2023-04-16T09:57:30.467Z,30.67
2023-04-16T10:00:05.950Z,35.22
2023-04-16T10:02:34.564Z,31.67
2023-04-16T10:05:05.246Z,31.75
2023-04-16T10:07:36.215Z,35.17
2023-04-16T10:10:04.415Z,34.88
2023-04-16T10:12:32.917Z,35.53
2023-04-16T10:14:59.732Z,34.15
2023-04-16T10:17:29.879Z,37.10
2023-04-16T10:19:58.363Z,42.05
2023-04-16T10:22:26.320Z,39.92
2023-04-16T10:24:53.935Z,42.20
2023-04-16T10:27:20.703Z,39.22
2023-04-16T10:29:48.750Z,37.05
2023-04-16T10:32:16.928Z,40.75
2023-04-16T10:34:43.482Z,40.22
2023-04-16T10:37:09.915Z,41.65
2023-04-16T10:39:37.552Z,35.47
2023-04-16T10:42:09.955Z,39.20
2023-04-16T10:44:36.617Z,35.70
2023-04-16T10:47:03.383Z,33.33
2023-04-16T10:49:29.987Z,33.97
2023-04-16T10:52:11.595Z,36.90
2023-04-16T10:54:38.838Z,38.70
2023-04-16T10:57:06.752Z,44.10
2023-04-16T10:59:35.921Z,43.90
2023-04-16T11:02:09.098Z,43.90
2023-04-16T11:04:38.112Z,42.97
2023-04-16T11:07:15.423Z,43.58
2023-04-16T11:09:52.539Z,44.08
2023-04-16T11:12:37.894Z,45.50
2023-04-16T11:15:06.335Z,45.00
2023-04-16T11:17:44.067Z,43.08
2023-04-16T11:20:27.873Z,43.33
2023-04-16T11:22:56.496Z,45.00
2023-04-16T11:25:31.288Z,38.53
2023-04-16T11:28:01.423Z,39.20
2023-04-16T11:30:36.293Z,36.83
2023-04-16T11:33:12.472Z,40.15
2023-04-16T11:35:39.806Z,40.15
2023-04-16T11:38:07.244Z,36.03
2023-04-16T11:40:34.234Z,33.22
2023-04-16T11:43:15.077Z,36.30
2023-04-16T11:45:59.273Z,56.17
2023-04-16T11:48:26.494Z,32.22
2023-04-16T11:50:57.143Z,37.00
2023-04-16T11:53:23.804Z,35.80
2023-04-16T11:55:50.414Z,31.67
2023-04-16T11:58:17.066Z,28.08
2023-04-16T12:00:45.227Z,30.00
2023-04-16T12:03:12.100Z,30.40
2023-04-16T12:05:40.724Z,26.58
2023-04-16T12:08:12.436Z,24.75
2023-04-16T12:13:21.698Z,32.05
2023-04-16T12:15:50.068Z,26.67
2023-04-16T12:18:17.848Z,25.23
2023-04-16T12:20:45.599Z,25.85
2023-04-16T12:23:25.425Z,26.88
2023-04-16T12:25:52.351Z,26.63
2023-04-16T12:28:29.918Z,22.10
2023-04-16T12:30:56.567Z,22.80
2023-04-16T12:33:23.204Z,23.33
2023-04-16T12:35:50.902Z,22.95
2023-04-16T12:38:17.450Z,26.20
2023-04-16T12:40:44.252Z,25.95
2023-04-16T12:43:11.078Z,26.65
2023-04-16T12:45:38.779Z,27.20
2023-04-16T12:48:05.733Z,27.17
2023-04-16T12:50:32.711Z,26.25
2023-04-16T12:52:59.589Z,27.98
2023-04-16T12:55:26.052Z,23.42
2023-04-16T12:57:55.186Z,26.00
2023-04-16T13:00:22.559Z,28.50
2023-04-16T13:02:49.259Z,22.90
2023-04-16T13:05:17.178Z,19.48
2023-04-16T13:07:43.652Z,21.33
2023-04-16T13:10:10.467Z,22.65
2023-04-16T13:12:37.065Z,22.67
2023-04-16T13:15:03.832Z,20.23
2023-04-16T13:17:30.526Z,22.10
2023-04-16T13:19:57.011Z,26.65
2023-04-16T13:22:24.275Z,23.42
2023-04-16T13:24:50.870Z,22.42
2023-04-16T13:27:17.922Z,24.15
2023-04-16T13:29:44.825Z,26.00
2023-04-16T13:32:13.701Z,23.88
2023-04-16T13:34:40.289Z,27.67
2023-04-16T13:37:06.834Z,27.73
2023-04-16T13:39:33.664Z,23.17
2023-04-16T13:42:00.342Z,25.85
2023-04-16T13:44:26.828Z,22.92
2023-04-16T13:46:53.577Z,23.83
2023-04-16T13:49:20.270Z,21.38
2023-04-16T13:51:46.733Z,21.63
2023-04-16T13:54:13.356Z,21.85
2023-04-16T13:56:40.860Z,25.00
2023-04-16T13:59:07.974Z,24.67
2023-04-16T14:01:34.559Z,23.17
2023-04-16T14:04:06.119Z,21.52
2023-04-16T14:06:33.962Z,25.98
2023-04-16T14:09:00.463Z,20.95
2023-04-16T14:11:26.890Z,24.67
2023-04-16T14:13:53.432Z,22.23
2023-04-16T14:16:20.083Z,21.35
2023-04-16T14:18:47.541Z,25.10
2023-04-16T14:21:13.989Z,27.20
2023-04-16T14:23:41.174Z,21.73
2023-04-16T14:26:08.115Z,19.98
2023-04-16T14:28:35.643Z,21.38
2023-04-16T14:31:02.277Z,25.30
2023-04-16T14:33:28.841Z,23.92
2023-04-16T14:35:55.469Z,17.77
2023-04-16T14:38:21.995Z,22.60
2023-04-16T14:40:48.724Z,16.83
2023-04-16T14:43:15.373Z,18.27
2023-04-16T14:45:42.272Z,18.02
2023-04-16T14:48:08.781Z,16.98
2023-04-16T14:50:39.104Z,15.85
2023-04-16T14:53:05.917Z,14.45
2023-04-16T14:55:32.601Z,14.27
2023-04-16T14:57:59.786Z,11.52
2023-04-16T15:00:27.488Z,14.65
2023-04-16T15:02:55.097Z,11.40
2023-04-16T15:05:22.117Z,14.00
2023-04-16T15:07:48.543Z,13.15
2023-04-16T15:10:15.127Z,16.65
2023-04-16T15:12:41.565Z,12.70
2023-04-16T15:15:09.046Z,13.10
2023-04-16T15:17:35.933Z,13.13
2023-04-16T15:20:06.005Z,14.65
2023-04-16T15:22:32.476Z,16.00
2023-04-16T15:24:58.894Z,9.73
2023-04-16T15:27:25.619Z,13.95
2023-04-16T15:29:53.876Z,9.48
2023-04-16T15:32:20.815Z,13.65
2023-04-16T15:34:47.394Z,13.60
2023-04-16T15:37:14.023Z,14.52
2023-04-16T15:39:40.761Z,11.63
2023-04-16T15:42:08.380Z,11.48
2023-04-16T15:44:35.043Z,14.65
2023-04-16T15:47:01.545Z,12.45
2023-04-16T15:49:28.068Z,14.52
2023-04-16T15:51:55.685Z,16.08
2023-04-16T15:54:22.429Z,13.57
2023-04-16T15:56:48.959Z,15.05
2023-04-16T15:59:15.668Z,13.70
2023-04-16T16:01:42.196Z,12.88
2023-04-16T16:04:08.937Z,12.38
2023-04-16T16:06:37.894Z,16.10
2023-04-16T16:09:04.921Z,13.57
2023-04-16T16:11:32.609Z,17.38
2023-04-16T16:14:01.307Z,13.77
2023-04-16T16:16:28.620Z,13.63
2023-04-16T16:18:55.411Z,13.82
2023-04-16T16:21:22.023Z,13.55
2023-04-16T16:23:48.608Z,14.15
2023-04-16T16:26:15.111Z,16.08
2023-04-16T16:28:43.753Z,14.40
2023-04-16T16:31:12.164Z,13.07
2023-04-16T16:33:40.301Z,16.00
2023-04-16T16:36:10.763Z,13.50
2023-04-16T16:38:37.898Z,16.33
2023-04-16T16:41:04.351Z,17.90
2023-04-16T16:43:31.001Z,15.45
2023-04-16T16:45:57.465Z,15.10
2023-04-16T16:48:23.938Z,15.30
2023-04-16T16:50:50.541Z,16.60
2023-04-16T16:53:17.114Z,21.20
2023-04-16T16:55:43.547Z,19.70
2023-04-16T16:58:10.157Z,17.77
2023-04-16T17:00:37.674Z,17.58
2023-04-16T17:03:04.301Z,19.67
2023-04-16T17:05:31.059Z,19.00
2023-04-16T17:07:57.506Z,15.80
2023-04-16T17:10:25.096Z,16.88
2023-04-16T17:12:51.822Z,15.77
2023-04-16T17:15:21.239Z,17.38
2023-04-16T17:17:48.455Z,16.40
2023-04-16T17:20:15.599Z,14.98
2023-04-16T17:22:42.426Z,20.38
2023-04-16T17:25:09.216Z,16.33
2023-04-16T17:27:36.017Z,17.83
2023-04-16T17:30:05.285Z,17.98
2023-04-16T17:32:32.573Z,18.77
2023-04-16T17:35:00.970Z,16.38
2023-04-16T17:37:27.623Z,20.92
2023-04-16T17:39:54.227Z,19.38
2023-04-16T17:42:20.762Z,23.52
2023-04-16T17:44:47.535Z,17.98
2023-04-16T17:47:14.029Z,16.92
2023-04-16T17:49:40.659Z,18.30
2023-04-16T17:52:07.160Z,15.68
2023-04-16T17:54:33.635Z,17.02
2023-04-16T17:57:00.154Z,17.13
2023-04-16T17:59:27.311Z,17.33
2023-04-16T18:01:54.780Z,17.73
2023-04-16T18:04:21.527Z,19.98
2023-04-16T18:06:48.335Z,15.65
2023-04-16T18:09:15.472Z,18.35
2023-04-16T18:11:42.129Z,20.27
2023-04-16T18:14:10.011Z,16.25
2023-04-16T18:16:36.793Z,19.88
2023-04-16T18:19:03.344Z,21.48
2023-04-16T18:21:30.399Z,19.30
2023-04-16T18:23:57.478Z,22.08
2023-04-16T18:26:25.261Z,19.45
2023-04-16T18:28:51.980Z,18.25
2023-04-16T18:31:21.055Z,18.38
2023-04-16T18:33:56.706Z,17.98
2023-04-16T18:36:24.419Z,22.50
2023-04-16T18:39:00.795Z,18.50
2023-04-16T18:41:28.036Z,18.67
2023-04-16T18:43:54.728Z,16.42
2023-04-16T18:46:21.229Z,16.25
2023-04-16T18:48:48.153Z,18.70
2023-04-16T18:51:16.359Z,19.52
2023-04-16T18:53:45.243Z,21.75
2023-04-16T18:56:11.770Z,16.35
2023-04-16T18:58:38.267Z,20.23
2023-04-16T19:01:07.724Z,21.30
2023-04-16T19:03:34.446Z,17.27
2023-04-16T19:06:01.132Z,20.42
2023-04-16T19:08:27.798Z,19.15
2023-04-16T19:10:54.369Z,21.50
2023-04-16T19:13:20.939Z,18.60
2023-04-16T19:15:47.439Z,21.55
2023-04-16T19:18:14.005Z,21.90
2023-04-16T19:20:40.514Z,20.45
2023-04-16T19:23:09.221Z,25.50
2023-04-16T19:25:36.670Z,20.75
2023-04-16T19:28:03.807Z,21.45
2023-04-16T19:30:30.879Z,22.15
2023-04-16T19:32:57.615Z,26.05
2023-04-16T19:35:24.282Z,21.27
2023-04-16T19:37:51.064Z,21.27
2023-04-16T19:40:17.666Z,21.30
2023-04-16T19:42:45.376Z,21.42
2023-04-16T19:45:11.977Z,24.27
2023-04-16T19:47:38.689Z,21.17
2023-04-16T19:50:05.829Z,24.35
2023-04-16T19:52:37.317Z,21.98
2023-04-16T19:55:04.410Z,19.38
2023-04-16T19:57:30.934Z,23.08
2023-04-16T19:59:57.401Z,21.27
2023-04-16T20:02:23.993Z,20.90
2023-04-16T20:04:50.776Z,25.13
2023-04-16T20:07:17.511Z,22.67
2023-04-16T20:09:44.083Z,24.42
2023-04-16T20:12:10.936Z,20.33
2023-04-16T20:14:37.366Z,21.20
2023-04-16T20:17:04.045Z,20.88
2023-04-16T20:19:33.650Z,21.00
2023-04-16T20:22:00.363Z,23.38
2023-04-16T20:24:26.812Z,18.00
2023-04-16T20:26:53.292Z,21.55
2023-04-16T20:29:19.879Z,19.73
2023-04-16T20:31:46.636Z,18.33
2023-04-16T20:34:13.097Z,17.92
2023-04-16T20:36:39.554Z,23.63
2023-04-16T20:39:08.138Z,15.40
2023-04-16T20:41:34.996Z,15.40
2023-04-16T20:44:05.447Z,13.65
2023-04-16T20:46:34.155Z,16.63
2023-04-16T20:49:03.507Z,16.42
2023-04-16T20:51:29.954Z,16.90
2023-04-16T20:53:56.718Z,22.23
2023-04-16T20:56:23.157Z,19.73
2023-04-16T20:58:49.712Z,17.98
2023-04-16T21:01:18.274Z,19.27
2023-04-16T21:03:45.187Z,15.63
2023-04-16T21:06:14.416Z,15.40
2023-04-16T21:08:41.125Z,17.20
2023-04-16T21:11:07.581Z,19.23
2023-04-16T21:13:34.331Z,20.73
2023-04-16T21:16:00.929Z,19.10
2023-04-16T21:18:27.599Z,17.63
2023-04-16T21:20:54.030Z,16.65
2023-04-16T21:23:20.642Z,19.25
2023-04-16T21:25:47.113Z,25.45
2023-04-16T21:28:13.598Z,18.13
2023-04-16T21:30:40.446Z,17.50
2023-04-16T21:33:07.052Z,21.83
2023-04-16T21:35:33.594Z,18.00
2023-04-16T21:38:00.346Z,16.73
2023-04-16T21:40:26.855Z,19.30
2023-04-16T21:42:53.624Z,17.85
2023-04-16T21:45:20.235Z,20.15
2023-04-16T21:47:46.657Z,22.23
2023-04-16T21:50:13.332Z,16.75
2023-04-16T21:52:40.339Z,17.88
2023-04-16T21:55:16.663Z,23.92
2023-04-16T21:57:43.235Z,23.23
2023-04-16T22:00:13.881Z,19.27
2023-04-16T22:02:42.292Z,19.13
2023-04-16T22:05:09.404Z,21.15
2023-04-16T22:07:36.735Z,22.95
2023-04-16T22:10:04.472Z,24.90
2023-04-16T22:12:31.059Z,19.05
2023-04-16T22:15:02.345Z,21.60
2023-04-16T22:17:30.102Z,20.10
2023-04-16T22:20:00.368Z,21.98
2023-04-16T22:22:26.773Z,23.20
2023-04-16T22:24:53.439Z,21.77
2023-04-16T22:27:19.931Z,21.15
2023-04-16T22:29:46.551Z,25.52
2023-04-16T22:32:13.096Z,23.33
2023-04-16T22:34:39.633Z,25.17
2023-04-16T22:37:07.973Z,19.50
2023-04-16T22:39:34.696Z,19.83
2023-04-16T22:42:02.803Z,21.25
2023-04-16T22:44:29.350Z,25.90
2023-04-16T22:46:56.046Z,24.08
2023-04-16T22:49:22.511Z,23.25
2023-04-16T22:51:49.137Z,20.83
2023-04-16T22:54:15.772Z,22.10
2023-04-16T22:56:42.292Z,21.75
2023-04-16T22:59:08.964Z,21.85
2023-04-16T23:01:35.787Z,31.88
2023-04-16T23:04:02.538Z,19.95
2023-04-16T23:06:29.042Z,22.25
2023-04-16T23:08:55.620Z,24.38
2023-04-16T23:11:22.209Z,23.20
2023-04-16T23:13:48.760Z,22.23
2023-04-16T23:16:15.458Z,20.17
2023-04-16T23:18:42.050Z,20.90
2023-04-16T23:21:08.520Z,27.08
2023-04-16T23:23:34.971Z,23.33
2023-04-16T23:26:02.771Z,23.67
2023-04-16T23:28:29.211Z,30.95
2023-04-16T23:30:55.928Z,22.88
2023-04-16T23:33:22.606Z,21.33
2023-04-16T23:35:49.074Z,28.05
2023-04-16T23:38:15.648Z,28.80
2023-04-16T23:40:42.212Z,20.20
2023-04-16T23:43:10.098Z,27.23
2023-04-16T23:45:36.847Z,30.10
2023-04-16T23:48:03.524Z,25.30
2023-04-16T23:50:30.269Z,22.88
2023-04-16T23:52:56.839Z,25.63
2023-04-16T23:55:23.492Z,25.65
2023-04-16T23:57:50.013Z,26.35
